x

Eel River - 17nm Wsw Of Eureka, Ca (46022) Wave Buoy

3:50am - Tue 28th Apr 2015 All times are PDT. -7 hours from GMT.

  • Sig Wave height 4.3ft
  • Swell Direction
  • Peak Period 10s
  • Average Period 7s
  • Wind
    7mph, 9mph gusts
  • Sea Temp 51°f
  • Air Temp 52°f
  • Sea Pressure 1019.6mb
  • Eel River - 17nm Wsw Of Eureka, Ca
  • Eel River - 17nm Wsw Of Eureka, Ca

More Historic Weather Station data

Upgrade to MSW Pro to gain access to the past 30 days of data for over 8000 Wavebouys and Weather Stations around the globe.

Join Pro

Comparision Forecast

View Surf forecast
   
Tue 04/28 3:50am 4.5ft 10s 7s 7 9 mph 1019.6mb 51f 52f
2:50am 4.5ft 9s 7s 7
mph
1019.9mb 51f 52f
1:50am 5ft 10s 8s 11 13 mph 1019.9mb 51f 52f
12:50am 4.5ft 10s 7s 9 11 mph 1020.3mb 51f 52f
Mon 04/27 11:50pm 5ft 14s 8s 7 9 mph 1020.3mb 52f 52f
10:50pm 5ft 9s 7s 9
mph
1020.2mb 52f 52f
9:50pm 5ft 10s 7s 9 11 mph 1019.8mb 52f 52f
8:50pm 4.5ft 9s 7s 11 13 mph 1019.1mb 52f 52f
7:50pm 4.5ft 11s 7s 7 9 mph 1018.3mb 52f 52f
6:50pm 4.5ft 10s 7s 4 7 mph 1018mb 52f 52f
5:50pm 4ft 10s 7s 7 9 mph 1017.8mb 52f 52f
4:50pm 4.5ft 10s 7s 7 9 mph 1017.7mb 52f 52f
3:50pm 4.5ft 9s 7s 9
mph
1017.9mb 52f 53f
2:50pm 5ft 10s 7s 4
mph
1017.9mb 52f 52f
1:50pm 5ft 8s 7s 7 9 mph 1017.8mb 51f 51f
12:50pm 4.5ft 9s 7s 9 11 mph 1018.4mb 51f 52f
11:50am 4.5ft 9s 7s 9 13 mph 1018.8mb 51f 50f
10:50am 4.5ft 10s 7s 9 11 mph 1019.2mb 51f 50f
9:50am 4.5ft 8s 7s 7 9 mph 1019.9mb 51f 50f
8:50am 4.5ft 8s 7s 7 9 mph 1020.5mb 51f 51f
7:50am 3.5ft 8s 7s 7 9 mph 1020.7mb 51f 50f
6:50am 3.5ft 9s 7s 9
mph
1020.8mb 51f 50f
5:50am 3.5ft 8s 7s 11 13 mph 1020.7mb 51f 51f
4:50am 3.5ft 8s 7s 13 16 mph 1021.2mb 51f 51f
3:50am 3.5ft 8s 7s 13 16 mph 1021.8mb 51f 51f
2:50am 3.5ft 9s 7s 9 11 mph 1022.6mb 51f 51f
1:50am 3.5ft 8s 7s 9
mph
1023.1mb 51f 51f
12:50am 3.5ft 15s 7s 9 13 mph 1023.3mb 51f 52f
Sun 04/26 11:50pm 3.5ft 8s 7s 7
mph
1023.5mb 51f 52f
10:50pm 3.5ft 9s 7s 7
mph
1023.7mb 52f 52f
9:50pm 3.5ft 8s 7s 4 7 mph 1024.1mb 52f 52f
8:50pm 3.5ft 8s 7s 7
mph
1024.2mb 51f 52f
7:50pm 3.5ft 9s 7s 7
mph
1024.2mb 52f 53f
6:50pm 3.5ft 9s 7s 7
mph
1024mb 52f 54f
5:50pm 3.5ft 8s 7s 7
mph
1024.3mb 53f 54f
4:50pm 3.5ft 9s 7s 7
mph
1024.4mb 53f 54f
3:50pm 4ft 9s 7s 7 9 mph 1024.8mb 53f 54f
2:50pm 4.5ft 8s 8s 4 7 mph 1025mb 53f 53f
1:50pm 4.5ft 8s 7s 4
mph
1025mb 52f 53f
12:50pm 4.5ft 8s 8s 4 7 mph 1025.2mb 53f 53f
11:50am 4.5ft 8s 7s 2 4 mph 1024.9mb 53f 53f
10:50am 5ft 8s 7s 2
mph
1024.4mb 52f 52f
9:50am 4.5ft 9s 7s 4 7 mph 1023.9mb 51f 51f
8:50am 5ft 8s 7s 4 7 mph 1023.6mb 51f 49f
7:50am 5ft 9s 8s 7 9 mph 1022.6mb 51f 49f
6:50am 5ft 8s 7s 7 9 mph 1021.8mb 51f 49f
5:50am 5ft 8s 7s 11 13 mph 1021.4mb 51f 49f
4:50am 5ft 11s 8s 11 13 mph 1021.2mb 51f 49f
3:50am 5.5ft 8s 8s 9 11 mph 1021.3mb 51f 49f
2:50am 6ft 10s 8s 7 9 mph 1021.3mb 51f 50f
1:50am 6ft 10s 8s 2 4 mph 1021.4mb 51f 51f
12:50am 6ft 10s 8s 2
mph
1021.3mb 51f 51f
Sat 04/25 11:50pm 6ft 11s 8s 2 4 mph 1021.1mb 51f 51f
10:50pm 6.5ft 11s 8s 2 4 mph 1020.9mb 51f 51f
9:50pm 6.5ft 10s 8s 2
mph
1020.8mb 51f 51f
8:50pm 7ft 11s 8s 2 4 mph 1020.3mb 51f 51f
7:50pm 7ft 11s 8s 4
mph
1020.1mb 52f 51f
6:50pm 7ft 11s 8s 4
mph
1020mb 52f 53f
5:50pm 6.5ft 11s 8s 4 7 mph 1019.5mb 52f 52f
4:50pm 6.5ft 11s 8s 7 9 mph 1019.4mb 52f 52f
3:50pm 7ft 12s 8s 7
mph
1019.2mb 52f 53f
2:50pm 6.5ft 11s 8s 4 7 mph 1019.2mb 51f 52f
1:50pm 7.5ft 13s 9s 7 9 mph 1019mb 51f 52f
12:50pm 7ft 11s 8s 7 9 mph 1018.9mb 51f 51f
11:50am 8ft 13s 9s 2 4 mph 1018.7mb 51f 51f
10:50am 7ft 12s 8s 2 4 mph 1018mb 50f 50f
9:50am 8ft 11s 8s 4 7 mph 1017.7mb 50f 50f
8:50am 8.5ft 12s 9s 7 9 mph 1016.9mb 49f 50f
7:50am 8ft 12s 8s 7 9 mph 1016.5mb 49f 50f
6:50am 8ft 13s 8s 9 11 mph 1016mb 49f 50f
5:50am 8ft 12s 9s 9 11 mph 1015.3mb 49f 49f
4:50am 9ft 13s 9s 9 11 mph 1015.1mb 49f 49f
3:50am 9.5ft 11s 9s 7 11 mph 1014.7mb 49f 49f
2:50am 9ft 12s 9s 7 11 mph 1014.8mb 50f 49f
1:50am 8ft 13s 9s 7 9 mph 1014.6mb 50f 48f
12:50am 9ft 11s 9s 4 7 mph 1014.6mb 50f 48f
Fri 04/24 11:50pm 9ft 13s 9s 4 7 mph 1014.6mb 50f 48f
10:50pm 9ft 12s 9s 4 7 mph 1014.9mb 50f 49f
9:50pm 9.5ft 14s 9s 4 7 mph 1014.8mb 50f 49f
8:50pm 9ft 13s 9s 4 7 mph 1014.7mb 50f 49f
7:50pm 11ft 15s 10s 7 9 mph 1014.4mb 50f 50f
6:50pm 10.5ft 15s 10s 7 9 mph 1014.5mb 50f 50f
5:50pm 10.5ft 15s 10s 9 11 mph 1015mb 51f 50f
4:50pm 11ft 15s 10s 9 11 mph 1015.2mb 51f 51f
3:50pm 9ft 16s 9s 9 11 mph 1015.8mb 51f 51f
2:50pm 9ft 16s 9s 9 11 mph 1016mb 51f 52f
1:50pm 8.5ft 16s 10s 9 11 mph 1016.3mb 51f 51f
12:50pm 7.5ft 16s 8s 7 9 mph 1016.8mb 51f 51f